createdAt,value
2022-10-29T00:01:02.159Z,19.18
2022-10-29T00:03:29.414Z,19.25
2022-10-29T00:06:12.643Z,19.03
2022-10-29T00:08:41.724Z,19.07
2022-10-29T00:11:22.879Z,18.99
2022-10-29T00:14:00.922Z,19.06
2022-10-29T00:16:39.831Z,19.02
2022-10-29T00:19:07.444Z,18.88
2022-10-29T00:21:35.022Z,18.97
2022-10-29T00:24:02.304Z,18.78
2022-10-29T00:26:31.371Z,18.79
2022-10-29T00:28:58.934Z,18.68
2022-10-29T00:31:26.632Z,18.70
2022-10-29T00:33:55.612Z,18.99
2022-10-29T00:36:29.865Z,19.03
2022-10-29T00:38:57.769Z,19.02
2022-10-29T00:41:30.211Z,19.10
2022-10-29T00:44:24.762Z,18.92
2022-10-29T00:47:18.834Z,18.80
2022-10-29T00:50:12.330Z,18.89
2022-10-29T00:52:47.290Z,18.83
2022-10-29T00:55:16.342Z,18.95
2022-10-29T00:57:53.605Z,18.79
2022-10-29T01:00:22.027Z,18.74
2022-10-29T01:02:49.906Z,18.82
2022-10-29T01:05:24.026Z,18.83
2022-10-29T01:07:51.419Z,18.79
2022-10-29T01:11:23.829Z,18.68
2022-10-29T01:15:00.997Z,18.91
2022-10-29T01:18:04.276Z,18.85
2022-10-29T01:21:33.299Z,18.93
2022-10-29T01:24:47.634Z,18.70
2022-10-29T01:28:12.559Z,18.71
2022-10-29T01:31:45.762Z,18.64
2022-10-29T01:34:57.229Z,18.63
2022-10-29T01:37:54.883Z,18.66
2022-10-29T01:40:40.023Z,18.52
2022-10-29T01:46:56.379Z,18.58
2022-10-29T01:49:39.820Z,18.42
2022-10-29T01:52:13.805Z,18.42
2022-10-29T01:54:47.978Z,18.28
2022-10-29T01:57:38.846Z,18.34
2022-10-29T02:00:17.757Z,18.27
2022-10-29T02:03:45.501Z,18.33
2022-10-29T02:06:41.429Z,18.49
2022-10-29T02:09:51.641Z,18.36
2022-10-29T02:12:57.154Z,18.15
2022-10-29T02:15:48.364Z,18.34
2022-10-29T02:18:18.425Z,18.40
2022-10-29T02:20:47.144Z,18.23
2022-10-29T02:23:16.336Z,18.25
2022-10-29T02:25:43.976Z,18.28
2022-10-29T02:28:11.367Z,18.22
2022-10-29T02:30:38.806Z,18.23
2022-10-29T02:33:06.084Z,18.15
2022-10-29T02:35:33.373Z,18.01
2022-10-29T02:38:00.642Z,18.19
2022-10-29T02:40:27.907Z,18.22
2022-10-29T02:42:55.691Z,18.20
2022-10-29T02:45:23.129Z,18.12
2022-10-29T02:47:51.192Z,18.20
2022-10-29T02:50:18.483Z,18.09
2022-10-29T02:52:45.742Z,18.09
2022-10-29T02:55:13.026Z,18.14
2022-10-29T02:57:43.341Z,17.90
2022-10-29T03:00:13.093Z,18.23
2022-10-29T03:02:40.836Z,17.96
2022-10-29T03:05:09.099Z,17.91
2022-10-29T03:07:39.694Z,18.08
2022-10-29T03:10:08.463Z,17.83
2022-10-29T03:12:35.722Z,17.77
2022-10-29T03:15:03.127Z,17.90
2022-10-29T03:17:30.636Z,18.01
2022-10-29T03:19:57.886Z,17.84
2022-10-29T03:22:26.566Z,17.76
2022-10-29T03:24:53.810Z,18.01
2022-10-29T03:27:21.072Z,17.99
2022-10-29T03:29:48.425Z,17.81
2022-10-29T03:32:15.691Z,17.72
2022-10-29T03:34:42.973Z,17.77
2022-10-29T03:37:10.294Z,17.86
2022-10-29T03:39:37.627Z,17.60
2022-10-29T03:42:05.179Z,17.98
2022-10-29T03:44:32.675Z,17.83
2022-10-29T03:46:59.931Z,17.79
2022-10-29T03:49:27.188Z,17.77
2022-10-29T03:51:55.268Z,17.84
2022-10-29T03:54:22.580Z,17.81
2022-10-29T03:56:49.866Z,17.71
2022-10-29T03:59:17.935Z,17.71
2022-10-29T04:01:45.309Z,17.75
2022-10-29T04:04:12.795Z,17.77
2022-10-29T04:06:40.104Z,17.90
2022-10-29T04:09:07.459Z,17.87
2022-10-29T04:11:34.730Z,17.63
2022-10-29T04:14:01.990Z,17.67
2022-10-29T04:16:29.246Z,17.70
2022-10-29T04:18:56.543Z,17.64
2022-10-29T04:28:36.913Z,17.83
2022-10-29T04:29:48.740Z,17.80
2022-10-29T04:32:16.102Z,17.78
2022-10-29T04:34:43.361Z,17.75
2022-10-29T04:37:10.613Z,17.59
2022-10-29T04:39:37.871Z,17.57
2022-10-29T04:42:05.226Z,17.53
2022-10-29T04:44:32.513Z,17.52
2022-10-29T04:46:59.770Z,17.80
2022-10-29T04:49:27.117Z,17.67
2022-10-29T04:51:54.414Z,17.81
2022-10-29T04:54:21.703Z,17.61
2022-10-29T04:56:48.976Z,17.82
2022-10-29T04:59:16.243Z,17.81
2022-10-29T05:01:43.628Z,17.59
2022-10-29T05:04:10.967Z,17.60
2022-10-29T05:06:38.245Z,17.59
2022-10-29T05:09:05.895Z,17.52
2022-10-29T05:11:33.180Z,17.65
2022-10-29T05:14:00.457Z,17.50
2022-10-29T05:16:27.730Z,17.57
2022-10-29T05:18:54.995Z,17.56
2022-10-29T05:21:22.270Z,17.72
2022-10-29T05:23:49.523Z,17.51
2022-10-29T05:26:17.696Z,17.59
2022-10-29T05:28:44.990Z,17.68
2022-10-29T05:31:13.406Z,17.47
2022-10-29T05:33:40.723Z,17.58
2022-10-29T05:36:08.261Z,17.63
2022-10-29T05:38:35.744Z,17.69
2022-10-29T05:41:03.088Z,17.83
2022-10-29T05:43:30.544Z,17.55
2022-10-29T05:45:57.831Z,17.79
2022-10-29T05:48:25.106Z,17.58
2022-10-29T05:50:52.369Z,17.72
2022-10-29T05:53:20.441Z,17.69
2022-10-29T05:55:47.738Z,17.68
2022-10-29T05:58:15.055Z,17.69
2022-10-29T06:00:45.562Z,17.77
2022-10-29T06:03:18.833Z,17.70
2022-10-29T06:05:49.245Z,17.74
2022-10-29T06:08:18.096Z,17.80
2022-10-29T06:10:45.463Z,17.51
2022-10-29T06:13:22.170Z,17.75
2022-10-29T06:15:51.007Z,17.74
2022-10-29T06:18:18.299Z,17.81
2022-10-29T06:20:45.610Z,17.59
2022-10-29T06:23:12.997Z,17.76
2022-10-29T06:25:40.479Z,17.65
2022-10-29T06:28:15.067Z,17.68
2022-10-29T06:30:48.451Z,17.78
2022-10-29T06:33:20.449Z,17.64
2022-10-29T06:35:48.073Z,17.73
2022-10-29T06:38:15.917Z,17.66
2022-10-29T06:40:44.495Z,17.56
2022-10-29T06:43:12.873Z,17.66
2022-10-29T06:45:40.281Z,17.43
2022-10-29T06:48:08.009Z,17.71
2022-10-29T06:50:35.326Z,17.78
2022-10-29T06:53:07.406Z,17.76
2022-10-29T06:55:35.773Z,17.68
2022-10-29T06:58:18.155Z,17.78
2022-10-29T07:00:46.567Z,17.79
2022-10-29T07:03:17.506Z,17.83
2022-10-29T07:05:45.182Z,17.77
2022-10-29T07:08:13.096Z,17.83
2022-10-29T07:10:41.368Z,17.94
2022-10-29T07:13:09.514Z,17.81
2022-10-29T07:15:36.774Z,17.93
2022-10-29T07:18:09.526Z,18.01
2022-10-29T07:20:44.856Z,18.09
2022-10-29T07:23:13.623Z,17.99
2022-10-29T07:25:45.145Z,18.07
2022-10-29T07:28:24.142Z,18.12
2022-10-29T07:30:53.102Z,18.12
2022-10-29T07:33:20.396Z,18.27
2022-10-29T07:35:47.646Z,18.46
2022-10-29T07:38:14.957Z,18.30
2022-10-29T07:40:50.202Z,18.51
2022-10-29T07:43:19.885Z,18.44
2022-10-29T07:45:50.916Z,18.64
2022-10-29T07:48:20.836Z,18.65
2022-10-29T07:50:49.027Z,18.68
2022-10-29T07:53:16.558Z,18.73
2022-10-29T07:55:43.823Z,18.88
2022-10-29T07:58:12.921Z,18.63
2022-10-29T08:00:41.518Z,18.77
2022-10-29T08:03:11.877Z,18.96
2022-10-29T08:05:42.288Z,18.99
2022-10-29T08:08:11.028Z,18.98
2022-10-29T08:10:38.330Z,19.24
2022-10-29T08:13:07.128Z,19.26
2022-10-29T08:15:36.347Z,19.47
2022-10-29T08:18:16.514Z,19.51
2022-10-29T08:20:44.279Z,19.61
2022-10-29T08:23:12.781Z,19.78
2022-10-29T08:25:43.756Z,19.84
2022-10-29T08:28:15.787Z,19.88
2022-10-29T08:30:50.691Z,20.04
2022-10-29T08:33:18.612Z,20.16
2022-10-29T08:35:46.011Z,20.32
2022-10-29T08:38:13.575Z,20.49
2022-10-29T08:41:06.259Z,20.56
2022-10-29T08:43:55.351Z,20.64
2022-10-29T08:46:56.387Z,20.61
2022-10-29T08:50:16.066Z,20.94
2022-10-29T08:52:53.047Z,21.01
2022-10-29T08:55:35.738Z,21.01
2022-10-29T08:58:40.997Z,21.15
2022-10-29T09:01:12.383Z,21.37
2022-10-29T09:03:39.867Z,21.28
2022-10-29T09:07:14.709Z,21.44
2022-10-29T09:10:04.239Z,21.74
2022-10-29T09:13:35.054Z,21.83
2022-10-29T09:16:33.447Z,22.26
2022-10-29T09:19:39.480Z,22.37
2022-10-29T09:22:27.812Z,22.37
2022-10-29T09:25:38.410Z,22.47
2022-10-29T09:28:43.063Z,22.62
2022-10-29T09:31:53.599Z,22.63
2022-10-29T09:34:51.709Z,22.74
2022-10-29T09:37:53.335Z,22.92
2022-10-29T09:40:34.317Z,22.84
2022-10-29T09:43:37.694Z,22.90
2022-10-29T09:46:21.319Z,23.00
2022-10-29T09:49:10.099Z,23.08
2022-10-29T09:52:19.155Z,23.48
2022-10-29T09:54:50.138Z,23.56
2022-10-29T09:57:30.755Z,23.71
2022-10-29T10:00:17.416Z,23.88
2022-10-29T10:03:16.101Z,23.97
2022-10-29T10:06:04.667Z,24.02
2022-10-29T10:08:34.504Z,24.04
2022-10-29T10:11:08.119Z,24.33
2022-10-29T10:13:51.692Z,24.47
2022-10-29T10:16:30.155Z,24.89
2022-10-29T10:18:57.484Z,25.11
2022-10-29T10:21:32.178Z,24.95
2022-10-29T10:24:01.215Z,24.83
2022-10-29T10:26:44.981Z,24.65
2022-10-29T10:29:20.942Z,24.77
2022-10-29T10:31:55.375Z,24.78
2022-10-29T10:34:38.961Z,24.93
2022-10-29T10:37:10.834Z,25.19
2022-10-29T10:40:03.293Z,25.26
2022-10-29T10:42:39.361Z,25.76
2022-10-29T10:45:40.093Z,25.68
2022-10-29T10:48:12.775Z,25.60
2022-10-29T10:50:40.074Z,25.88
2022-10-29T10:53:21.484Z,26.01
2022-10-29T10:55:57.965Z,26.28
2022-10-29T10:58:45.079Z,26.43
2022-10-29T11:01:48.032Z,26.44
2022-10-29T11:04:32.045Z,26.66
2022-10-29T11:07:07.989Z,26.57
2022-10-29T11:09:45.504Z,26.72
2022-10-29T11:12:40.103Z,27.08
2022-10-29T11:15:39.355Z,26.93
2022-10-29T11:19:01.038Z,27.46
2022-10-29T11:22:20.464Z,27.47
2022-10-29T11:25:44.367Z,27.89
2022-10-29T11:28:50.357Z,27.74
2022-10-29T11:32:16.866Z,27.79
2022-10-29T11:35:13.084Z,28.29
2022-10-29T11:38:10.853Z,28.41
2022-10-29T11:41:45.919Z,28.56
2022-10-29T11:44:17.927Z,28.80
2022-10-29T11:47:34.948Z,28.87
2022-10-29T11:50:49.693Z,28.77
2022-10-29T11:53:45.073Z,28.88
2022-10-29T11:57:16.721Z,28.77
2022-10-29T12:00:27.374Z,28.90
2022-10-29T12:04:33.118Z,28.94
2022-10-29T12:07:39.032Z,29.13
2022-10-29T12:10:52.150Z,29.09
2022-10-29T12:14:19.031Z,28.51
2022-10-29T12:17:28.322Z,28.64
2022-10-29T12:20:54.262Z,29.13
2022-10-29T12:24:07.246Z,29.42
2022-10-29T12:27:30.039Z,28.98
2022-10-29T12:30:09.951Z,29.06
2022-10-29T12:33:48.212Z,28.86
2022-10-29T12:36:55.070Z,29.21
2022-10-29T12:39:44.951Z,28.85
2022-10-29T12:42:25.674Z,29.04
2022-10-29T12:45:27.626Z,28.89
2022-10-29T12:48:27.659Z,29.12
2022-10-29T12:51:19.866Z,28.90
2022-10-29T12:54:39.969Z,28.68
2022-10-29T12:57:13.230Z,28.76
2022-10-29T12:59:43.198Z,28.59
2022-10-29T13:02:38.132Z,28.38
2022-10-29T13:05:11.395Z,28.52
2022-10-29T13:08:04.917Z,28.49
2022-10-29T13:10:34.677Z,28.30
2022-10-29T13:13:19.980Z,28.25
2022-10-29T13:16:15.844Z,28.30
2022-10-29T13:19:35.281Z,28.63
2022-10-29T13:22:51.001Z,27.98
2022-10-29T13:25:36.511Z,28.36
2022-10-29T13:28:09.694Z,28.33
2022-10-29T13:30:43.343Z,28.12
2022-10-29T13:33:28.285Z,28.20
2022-10-29T13:36:18.043Z,28.09
2022-10-29T13:39:07.754Z,28.05
2022-10-29T13:41:56.003Z,27.76
2022-10-29T13:44:26.825Z,27.79
2022-10-29T13:47:20.254Z,27.69
2022-10-29T13:49:49.671Z,27.71
2022-10-29T13:52:24.894Z,27.83
2022-10-29T13:55:09.547Z,27.77
2022-10-29T13:58:35.703Z,27.50
2022-10-29T14:01:17.872Z,27.76
2022-10-29T14:04:24.016Z,27.57
2022-10-29T14:06:54.548Z,27.47
2022-10-29T14:09:43.769Z,27.49
2022-10-29T14:12:22.615Z,27.48
2022-10-29T14:15:10.245Z,27.52
2022-10-29T14:17:37.551Z,27.51
2022-10-29T14:20:05.560Z,27.21
2022-10-29T14:22:40.670Z,27.19
2022-10-29T14:25:35.869Z,27.25
2022-10-29T14:28:31.531Z,27.22
2022-10-29T14:31:22.827Z,27.06
2022-10-29T14:33:59.453Z,26.96
2022-10-29T14:36:44.149Z,27.07
2022-10-29T14:39:32.588Z,27.19
2022-10-29T14:42:32.767Z,26.68
2022-10-29T14:45:28.767Z,26.77
2022-10-29T14:48:08.927Z,26.69
2022-10-29T14:50:36.918Z,26.64
2022-10-29T14:53:33.758Z,26.63
2022-10-29T14:56:11.115Z,26.51
2022-10-29T14:58:40.967Z,26.23
2022-10-29T15:01:21.274Z,26.47
2022-10-29T15:03:56.041Z,26.37
2022-10-29T15:06:29.980Z,26.36
2022-10-29T15:09:03.807Z,26.28
2022-10-29T15:12:18.011Z,26.23
2022-10-29T15:14:54.011Z,26.24
2022-10-29T15:17:30.614Z,26.26
2022-10-29T15:20:06.780Z,26.08
2022-10-29T15:22:42.721Z,26.12
2022-10-29T15:25:36.759Z,26.21
2022-10-29T15:28:10.043Z,26.22
2022-10-29T15:30:38.976Z,26.04
2022-10-29T15:33:16.396Z,26.17
2022-10-29T15:35:55.109Z,26.12
2022-10-29T15:38:31.440Z,26.08
2022-10-29T15:41:39.006Z,26.09
2022-10-29T15:44:40.679Z,25.97
2022-10-29T15:47:49.362Z,25.89
2022-10-29T15:50:40.441Z,25.89
2022-10-29T15:53:16.259Z,25.89
2022-10-29T15:55:44.333Z,25.63
2022-10-29T15:58:23.351Z,25.72
2022-10-29T16:00:51.863Z,25.64
2022-10-29T16:03:27.385Z,25.51
2022-10-29T16:06:04.983Z,25.36
2022-10-29T16:08:44.383Z,25.50
2022-10-29T16:11:20.962Z,25.15
2022-10-29T16:13:55.292Z,25.31
2022-10-29T16:16:26.422Z,25.15
2022-10-29T16:18:54.540Z,24.92
2022-10-29T16:21:26.388Z,24.93
2022-10-29T16:23:54.104Z,24.43
2022-10-29T16:26:25.305Z,24.53
2022-10-29T16:28:54.050Z,24.82
2022-10-29T16:31:28.470Z,24.56
2022-10-29T16:34:00.021Z,24.68
2022-10-29T16:36:27.307Z,24.49
2022-10-29T16:38:54.583Z,24.32
2022-10-29T16:41:22.194Z,24.24
2022-10-29T16:43:49.600Z,24.31
2022-10-29T16:46:16.901Z,24.17
2022-10-29T16:48:45.566Z,24.14
2022-10-29T16:51:12.972Z,24.31
2022-10-29T16:53:40.264Z,24.24
2022-10-29T16:56:08.078Z,24.00
2022-10-29T16:58:35.336Z,24.21
2022-10-29T17:01:10.447Z,24.17
2022-10-29T17:03:39.156Z,24.15
2022-10-29T17:06:10.679Z,24.15
2022-10-29T17:08:38.680Z,23.97
2022-10-29T17:11:10.040Z,23.90
2022-10-29T17:13:38.263Z,23.94
2022-10-29T17:16:16.597Z,23.66
2022-10-29T17:18:43.917Z,23.46
2022-10-29T17:21:11.304Z,23.57
2022-10-29T17:23:39.401Z,23.74
2022-10-29T17:26:06.655Z,23.39
2022-10-29T17:28:36.557Z,23.37
2022-10-29T17:31:10.047Z,23.31
2022-10-29T17:33:37.701Z,23.20
2022-10-29T17:36:15.632Z,23.18
2022-10-29T17:38:42.912Z,23.10
2022-10-29T17:41:10.432Z,23.04
2022-10-29T17:43:37.826Z,23.07
2022-10-29T17:46:05.578Z,23.24
2022-10-29T17:48:33.936Z,22.98
2022-10-29T17:51:03.148Z,23.21
2022-10-29T17:53:31.475Z,23.04
2022-10-29T17:56:01.905Z,23.13
2022-10-29T17:58:29.138Z,22.97
2022-10-29T18:01:03.642Z,23.05
2022-10-29T18:03:30.998Z,23.11
2022-10-29T18:06:09.749Z,23.02
2022-10-29T18:08:40.310Z,23.13
2022-10-29T18:11:20.037Z,23.06
2022-10-29T18:13:50.415Z,22.92
2022-10-29T18:16:26.226Z,22.99
2022-10-29T18:19:02.780Z,22.89
2022-10-29T18:21:31.816Z,23.02
2022-10-29T18:23:59.156Z,22.74
2022-10-29T18:26:34.725Z,22.74
2022-10-29T18:29:10.433Z,22.75
2022-10-29T18:31:40.173Z,22.84
2022-10-29T18:34:07.970Z,22.69
2022-10-29T18:36:36.761Z,22.53
2022-10-29T18:39:06.500Z,22.36
2022-10-29T18:41:36.100Z,22.65
2022-10-29T18:44:07.143Z,22.65
2022-10-29T18:46:34.482Z,22.73
2022-10-29T18:49:01.888Z,22.66
2022-10-29T18:51:32.980Z,22.69
2022-10-29T18:54:00.681Z,22.61
2022-10-29T18:56:30.136Z,22.57
2022-10-29T18:58:59.278Z,22.61
2022-10-29T19:01:34.944Z,22.59
2022-10-29T19:04:08.031Z,22.52
2022-10-29T19:06:37.463Z,22.46
2022-10-29T19:09:09.303Z,22.04
2022-10-29T19:11:37.130Z,22.28
2022-10-29T19:14:11.555Z,22.22
2022-10-29T19:16:38.863Z,22.44
2022-10-29T19:19:16.136Z,22.37
2022-10-29T19:21:45.876Z,22.32
2022-10-29T19:24:16.090Z,22.21
2022-10-29T19:26:44.201Z,22.10
2022-10-29T19:29:12.172Z,22.29
2022-10-29T19:31:40.411Z,22.19
2022-10-29T19:34:08.578Z,22.12
2022-10-29T19:36:37.608Z,22.06
2022-10-29T19:39:05.540Z,21.91
2022-10-29T19:41:33.461Z,21.85
2022-10-29T19:44:02.677Z,21.74
2022-10-29T19:46:30.728Z,21.84
2022-10-29T19:48:58.700Z,21.97
2022-10-29T19:51:26.778Z,21.96
2022-10-29T19:53:55.150Z,21.86
2022-10-29T19:56:22.466Z,21.62
2022-10-29T19:58:50.084Z,21.79
2022-10-29T20:01:20.194Z,21.66
2022-10-29T20:03:47.899Z,21.53
2022-10-29T20:06:16.464Z,21.53
2022-10-29T20:08:44.048Z,21.41
2022-10-29T20:11:11.459Z,21.50
2022-10-29T20:13:40.005Z,21.45
2022-10-29T20:16:13.271Z,21.32
2022-10-29T20:18:40.560Z,21.37
2022-10-29T20:21:08.396Z,21.37
2022-10-29T20:23:36.039Z,21.53
2022-10-29T20:26:03.759Z,21.32
2022-10-29T20:28:31.018Z,21.17
2022-10-29T20:31:19.246Z,21.25
2022-10-29T20:33:58.739Z,21.25
2022-10-29T20:36:32.310Z,21.23
2022-10-29T20:39:00.296Z,21.22
2022-10-29T20:41:29.226Z,21.20
2022-10-29T20:44:01.448Z,21.06
2022-10-29T20:46:29.532Z,21.03
2022-10-29T20:48:58.498Z,21.06
2022-10-29T20:51:26.976Z,21.03
2022-10-29T20:53:55.934Z,20.79
2022-10-29T20:56:26.979Z,20.88
2022-10-29T20:58:54.963Z,20.60
2022-10-29T21:01:24.501Z,20.68
2022-10-29T21:03:52.074Z,20.73
2022-10-29T21:06:20.102Z,20.53
2022-10-29T21:08:51.730Z,20.62
2022-10-29T21:11:21.854Z,20.45
2022-10-29T21:13:50.331Z,20.81
2022-10-29T21:16:27.501Z,20.45
2022-10-29T21:19:00.882Z,20.41
2022-10-29T21:21:30.128Z,20.48
2022-10-29T21:23:58.020Z,20.58
2022-10-29T21:26:27.846Z,20.52
2022-10-29T21:28:56.075Z,20.36
2022-10-29T21:31:24.702Z,20.63
2022-10-29T21:33:55.918Z,20.54
2022-10-29T21:36:23.564Z,20.60
2022-10-29T21:38:50.950Z,20.49
2022-10-29T21:41:18.456Z,20.56
2022-10-29T21:43:45.809Z,20.42
2022-10-29T21:46:13.062Z,20.61
2022-10-29T21:48:40.408Z,20.52
2022-10-29T21:51:15.113Z,20.32
2022-10-29T21:53:42.713Z,20.39
2022-10-29T21:56:14.691Z,20.38
2022-10-29T21:58:42.925Z,20.43
2022-10-29T22:01:16.391Z,20.35
2022-10-29T22:03:47.438Z,20.49
2022-10-29T22:06:22.673Z,20.26
2022-10-29T22:08:57.484Z,20.37
2022-10-29T22:11:28.490Z,20.44
2022-10-29T22:13:56.031Z,20.32
2022-10-29T22:16:23.807Z,20.49
2022-10-29T22:18:51.198Z,20.16
2022-10-29T22:21:26.540Z,20.35
2022-10-29T22:23:57.693Z,20.05
2022-10-29T22:26:29.542Z,20.12
2022-10-29T22:28:57.294Z,19.87
2022-10-29T22:31:25.299Z,19.91
2022-10-29T22:33:54.463Z,19.99
2022-10-29T22:36:26.730Z,19.70
2022-10-29T22:39:00.138Z,20.02
2022-10-29T22:41:29.689Z,20.04
2022-10-29T22:43:59.024Z,19.84
2022-10-29T22:46:28.721Z,19.83
2022-10-29T22:48:56.691Z,19.61
2022-10-29T22:51:31.711Z,19.84
2022-10-29T22:53:59.384Z,19.88
2022-10-29T22:56:36.080Z,19.72
2022-10-29T22:59:06.458Z,19.69
2022-10-29T23:01:40.381Z,19.68
2022-10-29T23:04:11.390Z,19.75
2022-10-29T23:06:38.685Z,19.88
2022-10-29T23:09:07.343Z,19.63
2022-10-29T23:11:40.149Z,19.70
2022-10-29T23:14:07.454Z,19.62
2022-10-29T23:16:36.789Z,19.53
2022-10-29T23:19:06.617Z,19.55
2022-10-29T23:21:34.190Z,19.56
2022-10-29T23:24:01.815Z,19.68
2022-10-29T23:26:29.213Z,19.50
2022-10-29T23:28:56.942Z,19.37
2022-10-29T23:31:28.141Z,19.46
2022-10-29T23:33:58.020Z,19.57
2022-10-29T23:36:27.315Z,19.21
2022-10-29T23:39:01.247Z,19.30
2022-10-29T23:41:31.240Z,19.54
2022-10-29T23:43:59.003Z,19.56
2022-10-29T23:46:26.278Z,19.50
2022-10-29T23:48:53.706Z,19.60
2022-10-29T23:51:21.068Z,19.51
2022-10-29T23:53:53.194Z,19.54
2022-10-29T23:56:23.814Z,19.50
2022-10-29T23:58:51.079Z,19.64
